Terminal Aerodrome Forecast
Issued by NWS Pittsburgh, PA

Current Version | Previous Version | Graphics & Text | Print | Product List | Glossary On
Versions: 1 2 3 4 5 6 7 8 9 10 11 12 13 14 15 16 17 18 19 20 21 22 23 24 25 26 27 28 29 30 31 32 33 34 35
666
FTUS41 KPBZ 171007 AAB
TAFPIT
TAF AMD
KPIT 171007Z 1710/1812 15004KT 2SM -RA BR OVC002
     FM171100 14003KT 4SM BR OVC025 WS020/20035KT
     FM171400 21012KT 6SM -RA OVC035
     FM172200 24011KT P6SM -RA OVC015=

USA.gov is the U.S. government's official web portal to all federal, state and local government web resources and services.